TimeHST,TemperatureF,Dew PointF,Humidity,Sea Level PressureIn,VisibilityMPH,Wind Direction,Wind SpeedMPH,Gust SpeedMPH,PrecipitationIn,Events,Conditions,WindDirDegrees,DateUTC
12:40 AM,73.4,69.8,88,29.93,10.0,ENE,9.2,-,N/A,,Mostly Cloudy,70,2014-02-13 10:40:00
12:53 AM,73.0,69.1,87,29.93,10.0,ENE,12.7,-,N/A,,Mostly Cloudy,70,2014-02-13 10:53:00
1:16 AM,73.4,69.8,88,29.94,10.0,ENE,11.5,-,N/A,,Mostly Cloudy,60,2014-02-13 11:16:00
1:24 AM,73.4,69.8,88,29.94,10.0,East,8.1,-,N/A,,Mostly Cloudy,80,2014-02-13 11:24:00
1:53 AM,73.0,70.0,90,29.94,10.0,ENE,6.9,-,N/A,,Mostly Cloudy,70,2014-02-13 11:53:00
2:19 AM,71.6,69.8,94,29.94,10.0,East,8.1,-,N/A,,Mostly Cloudy,90,2014-02-13 12:19:00
2:53 AM,73.0,69.1,87,29.92,10.0,ENE,9.2,-,N/A,,Mostly Cloudy,70,2014-02-13 12:53:00
3:53 AM,73.0,69.1,87,29.93,10.0,ENE,6.9,-,N/A,,Mostly Cloudy,70,2014-02-13 13:53:00
3:58 AM,73.4,69.8,88,29.94,10.0,ENE,5.8,-,N/A,,Mostly Cloudy,60,2014-02-13 13:58:00
4:12 AM,73.4,69.8,88,29.94,10.0,ENE,6.9,-,N/A,,Overcast,60,2014-02-13 14:12:00
4:30 AM,73.4,69.8,88,29.94,10.0,NE,5.8,-,N/A,,Overcast,50,2014-02-13 14:30:00
4:53 AM,72.0,70.0,93,29.94,10.0,NE,3.5,-,N/A,,Overcast,50,2014-02-13 14:53:00
5:37 AM,71.6,69.8,94,29.95,10.0,North,3.5,-,0.01,Rain,Light Rain,360,2014-02-13 15:37:00
5:51 AM,72.0,70.0,93,29.95,10.0,NW,3.5,-,0.01,,Mostly Cloudy,320,2014-02-13 15:51:00
6:03 AM,71.6,69.8,94,29.95,10.0,NNW,4.6,-,N/A,,Scattered Clouds,340,2014-02-13 16:03:00
6:53 AM,71.1,69.1,93,29.96,10.0,NNW,8.1,-,0.00,Rain,Light Rain,340,2014-02-13 16:53:00
7:17 AM,69.8,69.8,100,29.97,10.0,North,9.2,-,0.00,Tornado,Funnel Cloud,360,2014-02-13 17:17:00
7:20 AM,69.8,69.8,100,29.97,10.0,North,10.4,-,0.00,,Scattered Clouds,360,2014-02-13 17:20:00
7:30 AM,69.8,69.8,100,29.98,9.0,NNW,11.5,-,0.00,,Scattered Clouds,340,2014-02-13 17:30:00
7:46 AM,69.8,69.8,100,30.00,10.0,NNW,10.4,-,0.00,,Mostly Cloudy,340,2014-02-13 17:46:00
7:53 AM,71.1,69.1,93,30.00,10.0,NW,9.2,-,0.00,,Mostly Cloudy,320,2014-02-13 17:53:00
8:14 AM,66.2,64.4,94,30.02,2.0,North,12.7,-,0.04,Rain,Heavy Rain,360,2014-02-13 18:14:00
8:21 AM,66.2,64.4,94,30.02,3.0,North,16.1,-,0.05,Rain,Rain,360,2014-02-13 18:21:00
8:53 AM,66.0,62.1,87,30.03,10.0,North,16.1,21.9,0.05,,Overcast,350,2014-02-13 18:53:00
9:53 AM,66.0,62.1,87,30.03,8.0,North,19.6,27.6,0.00,Rain,Light Rain,350,2014-02-13 19:53:00
10:53 AM,66.0,61.0,84,30.03,10.0,North,21.9,28.8,0.00,Rain,Light Rain,360,2014-02-13 20:53:00
11:12 AM,66.2,62.6,88,30.03,10.0,North,19.6,29.9,0.00,Rain,Light Rain,360,2014-02-13 21:12:00
11:39 AM,66.2,62.6,88,30.02,5.0,North,19.6,-,0.00,Rain,Light Rain,360,2014-02-13 21:39:00
11:53 AM,66.0,63.0,90,30.01,7.0,North,16.1,-,0.00,Rain,Light Rain,350,2014-02-13 21:53:00
12:12 PM,66.2,64.4,94,30.01,3.0,North,15.0,-,0.00,Rain,Light Rain,350,2014-02-13 22:12:00
12:41 PM,66.2,64.4,94,30.00,2.0,North,11.5,-,0.00,,Overcast,360,2014-02-13 22:41:00
12:53 PM,66.9,66.0,97,29.99,2.0,North,15.0,-,0.00,,Overcast,10,2014-02-13 22:53:00
12:57 PM,68.0,66.2,94,30.00,1.5,North,13.8,-,N/A,,Overcast,360,2014-02-13 22:57:00
1:23 PM,66.2,66.2,100,29.99,1.0,North,17.3,-,0.02,Rain,Light Rain,360,2014-02-13 23:23:00
1:53 PM,66.9,66.0,97,29.98,1.2,North,17.3,-,0.08,Rain,Rain,360,2014-02-13 23:53:00
2:08 PM,66.2,66.2,100,29.97,1.2,North,20.7,25.3,0.03,,Overcast,360,2014-02-14 00:08:00
2:53 PM,66.9,66.0,97,29.96,1.2,North,16.1,23.0,0.08,,Overcast,360,2014-02-14 00:53:00
3:01 PM,66.2,66.2,100,29.96,1.5,North,15.0,-,0.01,,Overcast,360,2014-02-14 01:01:00
3:20 PM,66.2,66.2,100,29.95,1.0,North,17.3,-,0.02,,Overcast,360,2014-02-14 01:20:00
3:53 PM,66.9,66.0,97,29.94,1.8,North,17.3,-,0.05,,Overcast,10,2014-02-14 01:53:00
4:11 PM,66.2,64.4,94,29.96,1.5,North,15.0,-,0.01,,Overcast,360,2014-02-14 02:11:00
4:23 PM,66.2,66.2,100,29.96,1.5,North,10.4,19.6,0.01,,Overcast,350,2014-02-14 02:23:00
4:30 PM,66.2,64.4,94,29.97,1.5,North,11.5,-,0.02,,Overcast,350,2014-02-14 02:30:00
4:42 PM,66.2,66.2,100,29.97,2.0,North,11.5,-,0.03,Rain,Light Rain,350,2014-02-14 02:42:00
4:53 PM,66.9,66.0,97,29.96,2.5,North,11.5,-,0.04,Rain,Light Rain,350,2014-02-14 02:53:00
4:58 PM,66.2,66.2,100,29.97,2.5,North,11.5,-,0.00,Rain,Light Rain,350,2014-02-14 02:58:00
5:05 PM,66.2,66.2,100,29.97,2.5,North,11.5,-,0.00,Rain,Light Rain,350,2014-02-14 03:05:00
5:19 PM,66.2,64.4,94,29.97,2.5,North,12.7,-,0.02,Rain,Rain,360,2014-02-14 03:19:00
5:53 PM,66.0,66.0,100,29.99,2.0,North,13.8,-,0.07,,Overcast,360,2014-02-14 03:53:00
6:17 PM,66.2,66.2,100,29.99,2.5,North,11.5,-,0.01,Rain,Light Rain,360,2014-02-14 04:17:00
6:39 PM,66.2,64.4,94,29.99,3.0,North,12.7,-,0.02,Rain,Light Rain,350,2014-02-14 04:39:00
6:43 PM,66.2,64.4,94,29.99,2.5,North,12.7,-,0.02,Rain,Rain,360,2014-02-14 04:43:00
6:50 PM,66.2,66.2,100,29.99,2.5,North,13.8,-,0.03,Rain,Rain,360,2014-02-14 04:50:00
6:53 PM,66.9,66.0,97,29.99,2.5,North,15.0,-,0.04,Rain,Rain,360,2014-02-14 04:53:00
7:05 PM,66.2,66.2,100,30.00,2.0,North,10.4,-,0.01,Rain,Rain,350,2014-02-14 05:05:00
7:13 PM,66.2,66.2,100,30.00,2.0,North,11.5,-,0.04,Rain,Rain,360,2014-02-14 05:13:00
7:23 PM,66.2,66.2,100,30.01,1.8,North,11.5,-,0.08,Rain,Rain,350,2014-02-14 05:23:00
7:25 PM,66.2,66.2,100,30.01,2.0,North,11.5,-,0.08,Rain,Rain,350,2014-02-14 05:25:00
7:28 PM,66.2,66.2,100,30.01,1.8,North,11.5,-,0.09,Rain,Heavy Rain,360,2014-02-14 05:28:00
7:49 PM,66.2,66.2,100,30.02,2.0,North,16.1,-,0.19,Rain,Heavy Rain,350,2014-02-14 05:49:00
7:53 PM,66.9,66.0,97,30.02,1.8,North,10.4,-,0.21,Rain,Heavy Rain,350,2014-02-14 05:53:00
8:17 PM,66.2,66.2,100,30.02,3.0,North,10.4,-,0.19,Rain,Rain,350,2014-02-14 06:17:00
8:53 PM,68.0,66.0,93,30.02,9.0,NNE,16.1,24.2,0.19,Rain,Light Rain,20,2014-02-14 06:53:00
9:53 PM,69.1,66.0,90,30.03,9.0,NNE,16.1,24.2,0.07,,Overcast,30,2014-02-14 07:53:00
10:37 PM,68.0,66.2,94,30.04,1.8,North,15.0,-,0.04,Rain,Heavy Rain,10,2014-02-14 08:37:00
10:48 PM,68.0,66.2,94,30.05,2.0,North,13.8,-,0.07,Rain,Heavy Rain,360,2014-02-14 08:48:00
10:53 PM,68.0,66.0,93,30.05,2.0,NNW,9.2,19.6,0.09,Rain,Heavy Rain,340,2014-02-14 08:53:00
10:57 PM,66.2,66.2,100,30.05,1.8,North,6.9,17.3,0.03,Rain,Heavy Rain,350,2014-02-14 08:57:00
11:18 PM,66.2,66.2,100,30.04,2.0,North,9.2,-,0.12,Rain,Rain,10,2014-02-14 09:18:00
11:27 PM,68.0,66.2,94,30.04,7.0,NNE,18.4,23.0,0.13,Rain,Light Rain,30,2014-02-14 09:27:00
11:53 PM,68.0,66.0,93,30.04,10.0,NNE,16.1,-,0.13,Rain,Light Rain,30,2014-02-14 09:53:00